Decoded Metar for KAHN (ATHENS in GA, USA) (IATA:AHN) | Meteo·Mobile Aviation Weather
aviador You're here:

KAHN Decoded Metar

ATHENS in GA, USA
Report Time2018-09-21 03:51:00
UTC Time2018-09-21 04:50:00
Flight Rules vfr VFR
WindVRB at 03 kt
Visibility9999 m
Phenomena:N/A
Clouds:N/A
Expected CloudBase > 2,000 ft AGL from Temp-Dew spread
CeilingNone
Temp23°C (ISA +10)
Dew Point18°C (74% RH)
QNH1021 hPa
Density Alt1,923 ft
Elevation801 ft
Report Wrong Elevation
Raw Report
METAR KAHN 210351Z AUTO VRB03KT 10SM CLR 23/18 A3016 RMK AO2 SLP204
T02330183=

Extra information for KAHN:More info

Metar Taf Metar & Taf Last 4 Metars F.Rules Stats Wind Profile Meteogram Temp Stats Airport Information Weather charts Add Link Nearby VenuesMetar ALERT Operation Metar Decoded Social comments

AIRNAV info for KAHN